createdAt,value
2019-01-31T00:00:46.607Z,76.51
2019-01-31T00:06:14.268Z,76.69
2019-01-31T00:11:38.673Z,77.09
2019-01-31T00:23:34.512Z,77.42
2019-01-31T00:29:17.150Z,77.09
2019-01-31T00:35:02.694Z,77.35
2019-01-31T00:40:36.033Z,77.41
2019-01-31T00:46:11.146Z,77.63
2019-01-31T00:51:30.421Z,77.53
2019-01-31T00:57:02.864Z,77.90
2019-01-31T01:02:36.934Z,78.29
2019-01-31T01:08:20.329Z,78.75
2019-01-31T01:14:06.558Z,78.86
2019-01-31T01:20:08.340Z,79.12
2019-01-31T01:26:12.869Z,79.56
2019-01-31T01:31:47.624Z,80.03
2019-01-31T01:37:31.844Z,80.00
2019-01-31T01:43:16.005Z,80.26
2019-01-31T01:48:30.754Z,80.21
2019-01-31T01:54:07.962Z,80.48
2019-01-31T01:59:45.653Z,80.54
2019-01-31T02:05:32.681Z,81.17
2019-01-31T02:11:22.363Z,81.28
2019-01-31T02:16:51.688Z,81.61
2019-01-31T02:22:25.121Z,81.66
2019-01-31T02:28:16.450Z,81.19
2019-01-31T02:34:07.183Z,81.05
2019-01-31T02:39:43.075Z,81.47
2019-01-31T02:45:06.654Z,81.28
2019-01-31T02:51:08.123Z,81.33
2019-01-31T02:57:00.189Z,81.57
2019-01-31T03:02:26.950Z,81.86
2019-01-31T03:08:13.050Z,81.89
2019-01-31T03:13:54.542Z,81.93
2019-01-31T03:19:49.881Z,81.79
2019-01-31T03:25:35.649Z,81.69
2019-01-31T03:31:28.560Z,81.47
2019-01-31T03:37:15.750Z,81.66
2019-01-31T03:43:05.386Z,81.57
2019-01-31T03:48:50.176Z,81.59
2019-01-31T03:54:57.134Z,81.67
2019-01-31T04:00:26.712Z,81.91
2019-01-31T04:06:01.498Z,82.36
2019-01-31T04:11:08.675Z,82.28
2019-01-31T04:16:13.729Z,82.34
2019-01-31T04:21:27.899Z,82.44
2019-01-31T04:26:33.651Z,82.37
2019-01-31T04:31:38.924Z,82.23
2019-01-31T04:36:44.127Z,82.64
2019-01-31T04:41:49.436Z,82.83
2019-01-31T04:46:54.502Z,82.61
2019-01-31T04:52:00.689Z,82.39
2019-01-31T04:57:06.644Z,82.54
2019-01-31T05:02:17.822Z,82.29
2019-01-31T05:07:23.238Z,81.85
2019-01-31T05:12:28.657Z,82.14
2019-01-31T05:17:34.342Z,82.44
2019-01-31T05:22:39.583Z,82.34
2019-01-31T05:27:44.735Z,82.83
2019-01-31T05:32:50.276Z,83.01
2019-01-31T05:37:55.424Z,83.07
2019-01-31T05:43:00.966Z,83.02
2019-01-31T05:48:06.077Z,83.06
2019-01-31T05:53:12.030Z,82.46
2019-01-31T05:58:17.114Z,82.16
2019-01-31T06:03:22.480Z,82.29
2019-01-31T06:08:27.929Z,82.32
2019-01-31T06:13:33.113Z,82.59
2019-01-31T06:18:39.318Z,82.21
2019-01-31T06:23:44.631Z,82.50
2019-01-31T06:28:49.997Z,82.17
2019-01-31T06:33:55.514Z,82.30
2019-01-31T06:39:24.878Z,83.03
2019-01-31T06:44:30.254Z,82.97
2019-01-31T06:49:35.382Z,82.90
2019-01-31T06:54:40.966Z,83.43
2019-01-31T06:59:46.562Z,83.50
2019-01-31T07:04:52.446Z,83.38
2019-01-31T07:09:57.597Z,83.48
2019-01-31T07:15:03.274Z,83.45
2019-01-31T07:20:10.562Z,82.48
2019-01-31T07:25:18.380Z,82.34
2019-01-31T07:30:26.704Z,82.34
2019-01-31T07:35:30.861Z,82.14
2019-01-31T07:40:36.124Z,81.92
2019-01-31T07:45:41.416Z,81.55
2019-01-31T07:50:46.926Z,81.05
2019-01-31T07:55:51.971Z,80.37
2019-01-31T08:00:57.238Z,80.41
2019-01-31T08:06:02.276Z,80.33
2019-01-31T08:11:07.872Z,79.82
2019-01-31T08:16:13.003Z,79.93
2019-01-31T08:21:18.297Z,79.12
2019-01-31T08:26:23.467Z,77.61
2019-01-31T08:31:28.622Z,76.99
2019-01-31T08:36:34.486Z,76.96
2019-01-31T08:41:39.628Z,76.97
2019-01-31T08:46:44.742Z,76.73
2019-01-31T08:51:49.787Z,76.75
2019-01-31T08:56:55.262Z,76.51
2019-01-31T09:02:06.742Z,75.52
2019-01-31T09:07:11.851Z,74.21
2019-01-31T09:12:17.050Z,73.60
2019-01-31T09:17:22.634Z,73.75
2019-01-31T09:28:59.232Z,72.01
2019-01-31T09:34:39.448Z,71.55
2019-01-31T09:40:18.980Z,70.91
2019-01-31T09:45:49.622Z,71.22
2019-01-31T09:51:40.450Z,70.50
2019-01-31T09:57:21.753Z,71.03
2019-01-31T10:03:07.120Z,70.52
2019-01-31T10:09:05.608Z,70.54
2019-01-31T10:14:41.606Z,69.44
2019-01-31T10:20:06.776Z,68.75
2019-01-31T10:25:56.310Z,68.92
2019-01-31T10:31:28.214Z,67.80
2019-01-31T10:37:15.709Z,67.77
2019-01-31T10:43:00.140Z,67.81
2019-01-31T10:48:25.072Z,66.74
2019-01-31T10:54:20.725Z,65.81
2019-01-31T11:00:23.440Z,63.17
2019-01-31T11:05:58.981Z,57.36
2019-01-31T11:11:33.026Z,55.78
2019-01-31T11:17:14.139Z,52.90
2019-01-31T11:23:03.169Z,50.29
2019-01-31T11:28:18.364Z,45.52
2019-01-31T11:34:09.956Z,44.22
2019-01-31T11:39:55.036Z,39.42
2019-01-31T11:45:56.497Z,35.78
2019-01-31T11:51:38.498Z,34.35
2019-01-31T11:57:40.149Z,34.00
2019-01-31T12:02:54.694Z,33.55
2019-01-31T12:07:51.980Z,31.74
2019-01-31T12:12:57.504Z,33.68
2019-01-31T12:18:04.465Z,32.33
2019-01-31T12:23:10.715Z,31.24
2019-01-31T12:28:17.174Z,33.71
2019-01-31T12:33:22.428Z,39.01
2019-01-31T12:38:36.479Z,42.24
2019-01-31T12:43:35.532Z,42.97
2019-01-31T12:48:40.730Z,42.60
2019-01-31T12:53:46.082Z,40.62
2019-01-31T12:58:51.423Z,37.32
2019-01-31T13:03:58.161Z,38.28
2019-01-31T13:09:04.773Z,38.15
2019-01-31T13:14:11.550Z,37.58
2019-01-31T13:19:48.581Z,37.84
2019-01-31T13:30:54.853Z,41.78
2019-01-31T13:36:20.178Z,42.40
2019-01-31T13:41:25.624Z,41.47
2019-01-31T13:46:32.773Z,41.78
2019-01-31T13:51:45.665Z,43.49
2019-01-31T13:57:28.069Z,44.86
2019-01-31T14:02:59.526Z,46.42
2019-01-31T14:08:06.266Z,46.24
2019-01-31T14:13:15.251Z,47.09
2019-01-31T14:18:20.840Z,47.82
2019-01-31T14:23:26.083Z,48.97
2019-01-31T14:28:32.364Z,49.59
2019-01-31T14:33:37.648Z,50.89
2019-01-31T14:38:43.175Z,51.83
2019-01-31T14:43:48.481Z,51.94
2019-01-31T14:48:56.206Z,52.37
2019-01-31T14:54:01.882Z,52.59
2019-01-31T14:59:07.582Z,52.20
2019-01-31T15:04:12.811Z,52.95
2019-01-31T15:09:18.071Z,52.93
2019-01-31T15:14:32.023Z,53.22
2019-01-31T15:19:33.130Z,52.64
2019-01-31T15:24:38.316Z,52.23
2019-01-31T15:29:44.751Z,51.95
2019-01-31T15:34:49.923Z,52.61
2019-01-31T15:39:55.331Z,53.33
2019-01-31T15:45:01.888Z,54.24
2019-01-31T15:50:08.764Z,54.76
2019-01-31T15:55:15.941Z,55.27
2019-01-31T16:00:32.951Z,55.82
2019-01-31T16:05:38.232Z,56.49
2019-01-31T16:10:43.728Z,57.28
2019-01-31T16:15:48.985Z,57.68
2019-01-31T16:20:59.264Z,57.99
2019-01-31T16:26:07.676Z,57.94
2019-01-31T16:31:13.090Z,58.57
2019-01-31T16:36:21.706Z,58.24
2019-01-31T16:41:27.984Z,59.30
2019-01-31T16:46:36.313Z,59.94
2019-01-31T16:51:40.808Z,60.48
2019-01-31T16:56:46.178Z,60.51
2019-01-31T17:01:51.504Z,60.81
2019-01-31T17:06:57.124Z,61.14
2019-01-31T17:12:02.330Z,61.41
2019-01-31T17:17:08.650Z,62.23
2019-01-31T17:22:19.513Z,62.68
2019-01-31T17:27:25.513Z,63.52
2019-01-31T17:32:31.780Z,63.23
2019-01-31T17:37:37.227Z,63.61
2019-01-31T17:42:42.983Z,63.33
2019-01-31T17:47:48.577Z,63.89
2019-01-31T17:52:53.865Z,64.42
2019-01-31T17:57:59.174Z,65.13
2019-01-31T18:03:04.578Z,65.82
2019-01-31T18:08:09.988Z,66.33
2019-01-31T18:13:15.945Z,67.11
2019-01-31T18:18:21.385Z,66.81
2019-01-31T18:23:27.194Z,67.42
2019-01-31T18:28:32.559Z,67.59
2019-01-31T18:33:37.961Z,68.13
2019-01-31T18:38:44.570Z,68.49
2019-01-31T18:43:50.338Z,68.54
2019-01-31T18:48:57.538Z,68.68
2019-01-31T18:54:03.052Z,68.75
2019-01-31T18:59:08.221Z,69.37
2019-01-31T19:04:13.887Z,69.75
2019-01-31T19:09:19.243Z,69.85
2019-01-31T19:14:26.051Z,70.01
2019-01-31T19:19:32.359Z,70.29
2019-01-31T19:24:38.214Z,70.84
2019-01-31T19:29:44.418Z,70.57
2019-01-31T19:34:50.018Z,70.93
2019-01-31T19:39:55.378Z,71.23
2019-01-31T19:45:01.672Z,71.64
2019-01-31T19:50:08.479Z,71.57
2019-01-31T19:55:13.832Z,71.84
2019-01-31T20:00:20.617Z,71.87
2019-01-31T20:05:27.140Z,72.26
2019-01-31T20:10:32.379Z,72.50
2019-01-31T20:15:37.526Z,73.01
2019-01-31T20:20:43.033Z,73.08
2019-01-31T20:25:48.550Z,73.37
2019-01-31T20:30:53.868Z,73.37
2019-01-31T20:35:59.450Z,73.47
2019-01-31T20:41:04.922Z,73.70
2019-01-31T20:46:10.177Z,74.21
2019-01-31T20:51:15.462Z,74.57
2019-01-31T20:56:20.839Z,74.62
2019-01-31T21:01:26.101Z,74.40
2019-01-31T21:06:41.091Z,74.55
2019-01-31T21:11:38.138Z,75.14
2019-01-31T21:16:52.599Z,74.86
2019-01-31T21:22:01.122Z,75.37
2019-01-31T21:27:11.570Z,75.18
2019-01-31T21:32:19.746Z,75.39
2019-01-31T21:37:33.814Z,75.34
2019-01-31T21:42:39.107Z,75.55
2019-01-31T21:47:44.325Z,75.48
2019-01-31T21:52:49.494Z,75.99
2019-01-31T21:57:54.607Z,76.02
2019-01-31T22:02:59.882Z,76.21
2019-01-31T22:08:05.182Z,76.31
2019-01-31T22:13:10.355Z,76.71
2019-01-31T22:18:17.894Z,77.13
2019-01-31T22:23:22.340Z,77.04
2019-01-31T22:28:27.587Z,76.94
2019-01-31T22:33:32.811Z,77.06
2019-01-31T22:38:38.051Z,77.15
2019-01-31T22:43:43.173Z,77.35
2019-01-31T22:48:48.586Z,77.35
2019-01-31T22:53:54.023Z,77.50
2019-01-31T22:58:59.181Z,77.56
2019-01-31T23:04:04.956Z,77.70
2019-01-31T23:09:12.667Z,78.07
2019-01-31T23:14:17.955Z,78.50
2019-01-31T23:19:23.299Z,78.43
2019-01-31T23:24:28.450Z,78.56
2019-01-31T23:29:33.663Z,78.40
2019-01-31T23:34:38.802Z,78.59
2019-01-31T23:39:49.009Z,78.75
2019-01-31T23:44:54.141Z,79.07
2019-01-31T23:49:59.217Z,79.17
2019-01-31T23:55:05.073Z,79.48
